Avignon, France
Current Conditions -  °F | °C
As of 1:30 PM on Wednesday 26 Nov 2014 (Local Time) from LFMV Reporting Station
Overcast Overcast  
Wind Chill: 61°   Ceiling: 6400
Heat Index: 61°   Visibility: 6mi
Dew Point: 57°   Wind: 7mph
Humidity: 88%   Direction: 120°ESE
Pressure: 29.88"   Gusts: NA
Location:  43.95°N, 4.81°E
Report Text: LFMV 261230Z AUTO 12006KT 9999 OVC064/// ///CB 16/14 Q1012
Loading
Personal Weather Stations






























Interactive Weather Map New forecast layout! Learn more

10-Day Weather Forecast

Advertisements
Track Severe Weather on mobile